createdAt,value
2019-05-11T00:01:59.885Z,11.68
2019-05-11T00:04:29.007Z,9.18
2019-05-11T00:06:58.128Z,11.83
2019-05-11T00:09:27.295Z,11.25
2019-05-11T00:11:56.443Z,11.05
2019-05-11T00:14:25.636Z,12.82
2019-05-11T00:16:54.743Z,12.40
2019-05-11T00:19:23.864Z,12.65
2019-05-11T00:21:53.060Z,14.33
2019-05-11T00:24:22.182Z,12.70
2019-05-11T00:26:51.346Z,12.03
2019-05-11T00:29:20.526Z,11.40
2019-05-11T00:31:49.696Z,11.25
2019-05-11T00:34:18.826Z,12.15
2019-05-11T00:36:48.068Z,13.58
2019-05-11T00:39:17.226Z,10.88
2019-05-11T00:41:46.404Z,9.53
2019-05-11T00:44:15.543Z,14.47
2019-05-11T00:46:44.664Z,13.98
2019-05-11T00:49:13.778Z,9.73
2019-05-11T00:51:42.890Z,14.70
2019-05-11T00:54:12.038Z,13.43
2019-05-11T00:56:41.168Z,14.07
2019-05-11T00:59:21.312Z,12.13
2019-05-11T01:01:41.329Z,14.78
2019-05-11T01:04:10.471Z,16.00
2019-05-11T01:06:39.597Z,14.00
2019-05-11T01:09:08.806Z,12.30
2019-05-11T01:11:37.923Z,9.43
2019-05-11T01:14:07.155Z,9.50
2019-05-11T01:16:36.260Z,10.68
2019-05-11T01:19:05.399Z,14.43
2019-05-11T01:21:34.586Z,12.90
2019-05-11T01:24:03.686Z,13.15
2019-05-11T01:26:32.798Z,15.38
2019-05-11T01:29:01.939Z,14.60
2019-05-11T01:31:31.057Z,12.37
2019-05-11T01:34:00.197Z,12.05
2019-05-11T01:36:29.331Z,12.70
2019-05-11T01:38:58.467Z,11.50
2019-05-11T01:41:27.632Z,14.05
2019-05-11T01:43:56.831Z,11.68
2019-05-11T01:46:25.969Z,13.80
2019-05-11T01:48:55.124Z,14.10
2019-05-11T01:51:24.264Z,12.73
2019-05-11T01:53:53.377Z,11.88
2019-05-11T01:56:22.491Z,11.97
2019-05-11T01:58:51.633Z,14.90
2019-05-11T02:01:20.793Z,16.02
2019-05-11T02:03:49.907Z,16.75
2019-05-11T02:06:19.206Z,15.08
2019-05-11T02:08:48.345Z,13.25
2019-05-11T02:11:17.479Z,14.10
2019-05-11T02:13:46.630Z,12.40
2019-05-11T02:16:15.736Z,10.72
2019-05-11T02:18:44.877Z,11.85
2019-05-11T02:21:14.000Z,11.75
2019-05-11T02:23:43.089Z,12.50
2019-05-11T02:26:12.210Z,11.68
2019-05-11T02:28:41.535Z,14.83
2019-05-11T02:31:10.692Z,16.05
2019-05-11T02:33:39.792Z,13.40
2019-05-11T02:36:08.914Z,15.30
2019-05-11T02:38:38.066Z,9.63
2019-05-11T02:41:07.197Z,14.05
2019-05-11T02:43:36.575Z,11.53
2019-05-11T02:46:05.699Z,13.30
2019-05-11T02:48:34.820Z,13.80
2019-05-11T02:51:04.082Z,14.95
2019-05-11T02:53:34.835Z,15.05
2019-05-11T02:56:04.661Z,13.68
2019-05-11T02:58:33.793Z,12.47
2019-05-11T03:01:02.918Z,15.38
2019-05-11T03:03:32.075Z,17.07
2019-05-11T03:06:01.333Z,12.23
2019-05-11T03:08:30.472Z,11.75
2019-05-11T03:10:59.616Z,12.23
2019-05-11T03:13:28.732Z,13.83
2019-05-11T03:15:57.932Z,15.93
2019-05-11T03:18:27.040Z,15.85
2019-05-11T03:20:56.189Z,19.12
2019-05-11T03:23:25.313Z,12.35
2019-05-11T03:25:54.420Z,10.80
2019-05-11T03:28:23.552Z,15.83
2019-05-11T03:30:52.651Z,12.50
2019-05-11T03:33:21.812Z,13.68
2019-05-11T03:35:50.890Z,16.48
2019-05-11T03:38:19.992Z,15.80
2019-05-11T03:40:49.102Z,17.85
2019-05-11T03:43:18.216Z,17.07
2019-05-11T03:45:47.369Z,17.52
2019-05-11T03:48:16.487Z,15.63
2019-05-11T03:50:45.607Z,14.45
2019-05-11T03:53:14.777Z,17.32
2019-05-11T03:55:43.876Z,15.85
2019-05-11T03:58:13.087Z,16.75
2019-05-11T04:00:42.221Z,16.75
2019-05-11T04:03:11.356Z,18.98
2019-05-11T04:05:40.472Z,16.45
2019-05-11T04:08:09.605Z,12.53
2019-05-11T04:10:38.743Z,14.20
2019-05-11T04:13:07.893Z,15.45
2019-05-11T04:15:37.029Z,13.22
2019-05-11T04:18:06.173Z,18.30
2019-05-11T04:20:35.308Z,17.60
2019-05-11T04:23:04.508Z,17.57
2019-05-11T04:25:33.622Z,17.12
2019-05-11T04:28:02.750Z,17.05
2019-05-11T04:30:31.881Z,14.47
2019-05-11T04:33:01.035Z,17.80
2019-05-11T04:35:30.286Z,15.58
2019-05-11T04:37:59.393Z,15.58
2019-05-11T04:40:28.592Z,12.90
2019-05-11T04:42:57.812Z,15.00
2019-05-11T04:45:26.947Z,13.83
2019-05-11T04:47:56.069Z,12.28
2019-05-11T04:50:25.216Z,11.90
2019-05-11T04:52:54.360Z,14.25
2019-05-11T04:55:23.501Z,13.53
2019-05-11T04:57:52.621Z,15.35
2019-05-11T05:00:21.856Z,14.30
2019-05-11T05:02:51.003Z,13.53
2019-05-11T05:05:20.125Z,13.98
2019-05-11T05:07:50.709Z,13.80
2019-05-11T05:10:22.252Z,14.58
2019-05-11T05:12:52.982Z,14.33
2019-05-11T05:15:21.733Z,12.58
2019-05-11T05:17:50.897Z,12.25
2019-05-11T05:20:20.085Z,11.55
2019-05-11T05:22:49.197Z,13.22
2019-05-11T05:25:18.349Z,14.68
2019-05-11T05:27:47.451Z,13.38
2019-05-11T05:30:17.230Z,13.58
2019-05-11T05:32:46.342Z,14.93
2019-05-11T05:35:15.487Z,16.80
2019-05-11T05:37:44.756Z,13.08
2019-05-11T05:40:13.903Z,12.33
2019-05-11T05:42:43.051Z,11.50
2019-05-11T05:45:12.481Z,16.15
2019-05-11T05:47:41.654Z,14.07
2019-05-11T05:50:11.073Z,13.50
2019-05-11T05:52:40.223Z,13.28
2019-05-11T05:55:09.439Z,15.38
2019-05-11T05:57:38.599Z,16.32
2019-05-11T06:00:09.657Z,13.70
2019-05-11T06:02:38.805Z,15.60
2019-05-11T06:05:08.031Z,17.82
2019-05-11T06:07:37.187Z,16.05
2019-05-11T06:10:06.948Z,14.93
2019-05-11T06:12:36.066Z,15.23
2019-05-11T06:15:05.755Z,12.95
2019-05-11T06:17:34.878Z,15.83
2019-05-11T06:20:04.802Z,18.57
2019-05-11T06:22:33.997Z,19.05
2019-05-11T06:25:03.199Z,16.73
2019-05-11T06:27:32.324Z,19.27
2019-05-11T06:30:01.484Z,17.85
2019-05-11T06:32:30.615Z,19.67
2019-05-11T06:34:59.752Z,18.85
2019-05-11T06:37:28.916Z,17.70
2019-05-11T06:39:58.104Z,17.67
2019-05-11T06:42:27.279Z,17.70
2019-05-11T06:44:56.413Z,18.92
2019-05-11T06:47:25.542Z,18.37
2019-05-11T06:49:54.687Z,21.35
2019-05-11T06:52:23.813Z,19.82
2019-05-11T06:54:52.945Z,17.52
2019-05-11T06:57:22.054Z,16.95
2019-05-11T06:59:51.195Z,17.87
2019-05-11T07:02:20.365Z,17.70
2019-05-11T07:04:49.528Z,15.78
2019-05-11T07:07:18.688Z,18.25
2019-05-11T07:09:47.882Z,23.05
2019-05-11T07:12:17.151Z,16.77
2019-05-11T07:14:46.498Z,17.48
2019-05-11T07:17:15.668Z,17.02
2019-05-11T07:19:47.492Z,19.40
2019-05-11T07:22:15.705Z,19.50
2019-05-11T07:24:44.868Z,17.80
2019-05-11T07:27:14.014Z,17.48
2019-05-11T07:29:43.167Z,17.30
2019-05-11T07:32:21.937Z,18.12
2019-05-11T07:34:48.573Z,16.82
2019-05-11T07:37:18.520Z,18.12
2019-05-11T07:39:48.738Z,18.00
2019-05-11T07:42:18.211Z,14.03
2019-05-11T07:44:48.153Z,17.10
2019-05-11T07:47:18.644Z,13.68
2019-05-11T07:49:48.857Z,13.28
2019-05-11T07:52:18.346Z,18.20
2019-05-11T07:54:52.678Z,11.10
2019-05-11T07:57:18.693Z,15.55
2019-05-11T07:59:48.609Z,12.03
2019-05-11T08:02:18.018Z,17.15
2019-05-11T08:04:48.187Z,14.63
2019-05-11T08:07:18.212Z,13.50
2019-05-11T08:09:48.370Z,14.80
2019-05-11T08:12:19.223Z,17.17
2019-05-11T08:14:57.771Z,12.63
2019-05-11T08:17:19.348Z,15.38
2019-05-11T08:19:48.510Z,15.55
2019-05-11T08:22:22.534Z,11.80
2019-05-11T08:24:48.608Z,14.87
2019-05-11T08:27:18.679Z,15.48
2019-05-11T08:29:48.765Z,14.95
2019-05-11T08:32:18.408Z,14.35
2019-05-11T08:34:49.060Z,14.70
2019-05-11T08:37:18.892Z,11.65
2019-05-11T08:39:48.332Z,12.98
2019-05-11T08:42:18.041Z,16.02
2019-05-11T08:44:48.336Z,15.23
2019-05-11T08:47:17.864Z,19.07
2019-05-11T08:49:48.443Z,16.25
2019-05-11T08:52:18.650Z,12.68
2019-05-11T08:54:48.729Z,14.47
2019-05-11T08:57:18.151Z,15.13
2019-05-11T08:59:48.394Z,14.23
2019-05-11T09:02:18.649Z,16.62
2019-05-11T09:04:48.526Z,17.82
2019-05-11T09:07:18.434Z,15.60
2019-05-11T09:09:48.352Z,18.73
2019-05-11T09:12:18.314Z,15.70
2019-05-11T09:14:47.966Z,14.40
2019-05-11T09:17:18.262Z,18.82
2019-05-11T09:19:48.149Z,15.30
2019-05-11T09:22:18.719Z,13.78
2019-05-11T09:24:48.023Z,11.73
2019-05-11T09:27:18.383Z,11.73
2019-05-11T09:29:48.075Z,10.58
2019-05-11T09:32:17.948Z,13.25
2019-05-11T09:34:48.459Z,12.33
2019-05-11T09:37:18.426Z,10.00
2019-05-11T09:39:47.926Z,8.88
2019-05-11T09:42:17.923Z,8.78
2019-05-11T09:44:48.552Z,7.90
2019-05-11T09:47:18.938Z,7.60
2019-05-11T09:49:50.956Z,7.92
2019-05-11T09:52:19.135Z,6.95
2019-05-11T09:54:48.790Z,6.17
2019-05-11T09:57:18.594Z,6.35
2019-05-11T09:59:47.964Z,5.92
2019-05-11T10:02:20.679Z,5.90
2019-05-11T10:04:48.470Z,6.50
2019-05-11T10:07:18.253Z,6.28
2019-05-11T10:09:47.947Z,6.28
2019-05-11T10:12:18.106Z,6.35
2019-05-11T10:14:48.573Z,5.92
2019-05-11T10:17:18.291Z,5.50
2019-05-11T10:19:49.642Z,4.92
2019-05-11T10:22:18.685Z,4.75
2019-05-11T10:24:47.838Z,5.05
2019-05-11T10:27:18.894Z,5.90
2019-05-11T10:29:48.496Z,5.53
2019-05-11T10:32:18.410Z,5.45
2019-05-11T10:34:47.858Z,6.00
2019-05-11T10:37:17.712Z,5.47
2019-05-11T10:39:48.851Z,6.35
2019-05-11T10:42:18.119Z,5.33
2019-05-11T10:44:47.961Z,4.53
2019-05-11T10:47:18.456Z,4.10
2019-05-11T10:49:48.479Z,4.78
2019-05-11T10:52:18.118Z,5.83
2019-05-11T10:54:47.891Z,4.55
2019-05-11T10:57:18.909Z,4.78
2019-05-11T10:59:48.877Z,4.50
2019-05-11T11:02:18.630Z,4.33
2019-05-11T11:04:48.541Z,4.42
2019-05-11T11:07:19.454Z,3.72
2019-05-11T11:09:49.145Z,4.20
2019-05-11T11:12:18.835Z,4.78
2019-05-11T11:14:48.321Z,4.00
2019-05-11T11:17:19.194Z,4.75
2019-05-11T11:19:48.801Z,3.95
2019-05-11T11:22:35.922Z,4.42
2019-05-11T11:24:48.888Z,4.50
2019-05-11T11:27:18.604Z,4.17
2019-05-11T11:29:47.933Z,4.55
2019-05-11T11:32:18.370Z,4.28
2019-05-11T11:34:48.474Z,4.25
2019-05-11T11:37:17.808Z,4.03
2019-05-11T11:39:47.620Z,4.00
2019-05-11T11:42:18.476Z,4.20
2019-05-11T11:44:48.362Z,4.30
2019-05-11T11:47:21.339Z,4.33
2019-05-11T11:49:48.386Z,3.90
2019-05-11T11:52:18.778Z,4.12
2019-05-11T11:54:48.064Z,4.87
2019-05-11T11:57:18.321Z,6.15
2019-05-11T11:59:48.131Z,4.30
2019-05-11T12:02:19.105Z,5.08
2019-05-11T12:04:48.690Z,5.00
2019-05-11T12:07:18.135Z,5.17
2019-05-11T12:09:48.353Z,3.52
2019-05-11T12:12:18.624Z,4.58
2019-05-11T12:14:48.183Z,6.08
2019-05-11T12:17:18.177Z,5.20
2019-05-11T12:19:47.995Z,5.25
2019-05-11T12:22:18.803Z,4.30
2019-05-11T12:24:48.394Z,5.30
2019-05-11T12:27:18.339Z,5.17
2019-05-11T12:29:47.804Z,5.87
2019-05-11T12:32:23.067Z,4.28
2019-05-11T12:34:52.183Z,4.75
2019-05-11T12:37:22.087Z,4.97
2019-05-11T12:39:51.331Z,4.53
2019-05-11T12:42:20.539Z,4.35
2019-05-11T12:44:49.732Z,4.95
2019-05-11T12:47:24.280Z,4.90
2019-05-11T12:49:49.811Z,5.35
2019-05-11T12:52:18.953Z,5.42
2019-05-11T12:54:48.131Z,5.12
2019-05-11T12:57:18.681Z,4.15
2019-05-11T12:59:48.757Z,6.45
2019-05-11T13:02:19.859Z,6.30
2019-05-11T13:04:49.100Z,5.05
2019-05-11T13:07:19.675Z,5.50
2019-05-11T13:09:49.033Z,5.67
2019-05-11T13:12:18.728Z,5.60
2019-05-11T13:14:48.858Z,5.22
2019-05-11T13:17:18.795Z,5.58
2019-05-11T13:19:49.251Z,7.05
2019-05-11T13:22:18.602Z,4.78
2019-05-11T13:24:48.264Z,4.90
2019-05-11T13:27:18.089Z,7.65
2019-05-11T13:29:48.606Z,6.12
2019-05-11T13:32:18.771Z,5.60
2019-05-11T13:34:48.252Z,5.87
2019-05-11T13:37:18.849Z,5.22
2019-05-11T13:39:51.135Z,6.35
2019-05-11T13:42:23.161Z,5.42
2019-05-11T13:44:51.203Z,7.03
2019-05-11T13:47:23.254Z,6.00
2019-05-11T13:49:52.477Z,6.15
2019-05-11T13:52:21.654Z,6.30
2019-05-11T13:54:50.833Z,7.12
2019-05-11T13:57:20.095Z,5.47
2019-05-11T13:59:49.262Z,5.00
2019-05-11T14:02:18.587Z,5.83
2019-05-11T14:04:48.214Z,6.95
2019-05-11T14:07:18.597Z,6.08
2019-05-11T14:09:48.504Z,7.12
2019-05-11T14:12:18.265Z,6.28
2019-05-11T14:14:48.093Z,6.28
2019-05-11T14:17:18.672Z,6.53
2019-05-11T14:19:49.223Z,5.42
2019-05-11T14:22:18.627Z,6.08
2019-05-11T14:24:48.365Z,6.12
2019-05-11T14:27:18.753Z,5.83
2019-05-11T14:29:48.677Z,5.08
2019-05-11T14:32:28.440Z,4.20
2019-05-11T14:34:57.979Z,4.67
2019-05-11T14:37:28.544Z,5.03
2019-05-11T14:39:58.426Z,4.95
2019-05-11T14:42:28.635Z,5.30
2019-05-11T14:44:58.939Z,5.00
2019-05-11T14:47:28.446Z,4.62
2019-05-11T14:49:57.941Z,5.35
2019-05-11T14:52:28.055Z,5.42
2019-05-11T14:54:58.431Z,5.45
2019-05-11T14:57:27.981Z,5.10
2019-05-11T14:59:58.614Z,5.20
2019-05-11T15:02:48.569Z,5.22
2019-05-11T15:05:18.476Z,5.03
2019-05-11T15:07:48.462Z,4.55
2019-05-11T15:10:19.225Z,5.22
2019-05-11T15:12:48.920Z,4.60
2019-05-11T15:15:18.819Z,4.78
2019-05-11T15:17:51.102Z,3.85
2019-05-11T15:20:20.576Z,4.53
2019-05-11T15:22:49.752Z,4.47
2019-05-11T15:25:20.023Z,5.00
2019-05-11T15:27:49.306Z,4.90
2019-05-11T15:30:19.067Z,4.62
2019-05-11T15:32:49.934Z,4.15
2019-05-11T15:35:19.202Z,4.70
2019-05-11T15:37:48.455Z,3.70
2019-05-11T15:40:18.983Z,4.05
2019-05-11T15:42:48.768Z,4.20
2019-05-11T15:45:38.089Z,4.62
2019-05-11T15:48:08.424Z,4.97
2019-05-11T15:50:40.046Z,4.95
2019-05-11T15:53:08.856Z,4.53
2019-05-11T15:55:41.795Z,4.15
2019-05-11T15:58:08.812Z,3.90
2019-05-11T16:00:40.013Z,4.20
2019-05-11T16:03:08.997Z,4.25
2019-05-11T16:05:38.224Z,5.25
2019-05-11T16:08:08.360Z,3.80
2019-05-11T16:10:38.403Z,4.30
2019-05-11T16:13:09.224Z,5.03
2019-05-11T16:15:38.674Z,5.35
2019-05-11T16:18:08.469Z,6.00
2019-05-11T16:20:37.775Z,4.35
2019-05-11T16:23:06.955Z,4.45
2019-05-11T16:25:38.246Z,3.92
2019-05-11T16:28:07.799Z,5.20
2019-05-11T16:30:37.963Z,5.33
2019-05-11T16:33:08.758Z,4.30
2019-05-11T16:35:38.376Z,4.67
2019-05-11T16:38:07.743Z,5.30
2019-05-11T16:40:38.724Z,4.75
2019-05-11T16:43:08.580Z,4.35
2019-05-11T16:45:37.741Z,4.80
2019-05-11T16:48:07.981Z,4.67
2019-05-11T16:50:38.350Z,5.28
2019-05-11T16:53:07.598Z,4.45
2019-05-11T16:55:37.708Z,4.92
2019-05-11T16:58:08.254Z,5.58
2019-05-11T17:00:41.931Z,5.40
2019-05-11T17:03:08.423Z,4.90
2019-05-11T17:05:38.322Z,3.95
2019-05-11T17:08:08.081Z,4.22
2019-05-11T17:10:37.534Z,5.03
2019-05-11T17:13:08.579Z,4.17
2019-05-11T17:15:37.575Z,4.00
2019-05-11T17:18:08.103Z,4.00
2019-05-11T17:20:37.303Z,3.83
2019-05-11T17:23:06.543Z,3.50
2019-05-11T17:25:37.801Z,3.55
2019-05-11T17:28:09.415Z,3.00
2019-05-11T17:30:38.648Z,3.33
2019-05-11T17:33:08.669Z,3.15
2019-05-11T17:35:38.141Z,3.25
2019-05-11T17:38:07.995Z,2.83
2019-05-11T17:40:37.834Z,3.12
2019-05-11T17:43:09.089Z,2.60
2019-05-11T17:45:37.990Z,2.90
2019-05-11T17:48:08.470Z,2.67
2019-05-11T17:50:38.302Z,2.45
2019-05-11T17:53:07.650Z,2.37
2019-05-11T17:55:38.399Z,2.30
2019-05-11T17:58:08.696Z,3.67
2019-05-11T18:00:39.206Z,4.10
2019-05-11T18:03:11.426Z,7.10
2019-05-11T18:05:39.408Z,5.78
2019-05-11T18:08:08.829Z,3.90
2019-05-11T18:10:38.553Z,2.72
2019-05-11T18:13:07.706Z,2.77
2019-05-11T18:15:38.067Z,2.62
2019-05-11T18:18:09.456Z,2.62
2019-05-11T18:20:38.269Z,2.30
2019-05-11T18:23:08.255Z,2.10
2019-05-11T18:25:39.045Z,2.00
2019-05-11T18:28:08.423Z,1.92
2019-05-11T18:30:38.758Z,2.30
2019-05-11T18:33:08.449Z,1.90
2019-05-11T18:35:37.791Z,1.92
2019-05-11T18:38:08.560Z,1.98
2019-05-11T18:40:38.329Z,1.98
2019-05-11T18:43:08.567Z,1.92
2019-05-11T18:45:38.398Z,2.20
2019-05-11T18:48:08.134Z,1.98
2019-05-11T18:50:38.511Z,2.10
2019-05-11T18:53:09.263Z,1.90
2019-05-11T18:55:38.568Z,2.25
2019-05-11T18:58:07.709Z,2.35
2019-05-11T19:00:38.205Z,2.22
2019-05-11T19:03:08.782Z,2.35
2019-05-11T19:05:38.705Z,1.85
2019-05-11T19:08:07.936Z,2.12
2019-05-11T19:10:38.358Z,2.45
2019-05-11T19:13:09.732Z,2.12
2019-05-11T19:15:39.005Z,2.12
2019-05-11T19:18:08.094Z,2.35
2019-05-11T19:20:45.119Z,3.00
2019-05-11T19:23:08.421Z,2.30
2019-05-11T19:25:37.662Z,3.00
2019-05-11T19:28:08.571Z,3.92
2019-05-11T19:30:38.446Z,6.17
2019-05-11T19:33:10.765Z,5.28
2019-05-11T19:35:38.513Z,6.80
2019-05-11T19:38:08.664Z,6.17
2019-05-11T19:40:38.651Z,6.65
2019-05-11T19:43:08.355Z,10.40
2019-05-11T19:45:38.554Z,4.53
2019-05-11T19:48:08.487Z,3.30
2019-05-11T19:50:38.201Z,5.75
2019-05-11T19:53:08.663Z,4.90
2019-05-11T19:55:37.788Z,5.67
2019-05-11T19:58:06.966Z,3.77
2019-05-11T20:00:38.005Z,3.30
2019-05-11T20:03:09.170Z,3.87
2019-05-11T20:05:38.115Z,2.67
2019-05-11T20:08:07.942Z,3.33
2019-05-11T20:10:38.322Z,3.70
2019-05-11T20:13:08.212Z,3.27
2019-05-11T20:15:38.113Z,2.60
2019-05-11T20:18:07.948Z,2.45
2019-05-11T20:20:37.718Z,2.72
2019-05-11T20:23:07.798Z,2.67
2019-05-11T20:25:37.991Z,2.50
2019-05-11T20:28:08.145Z,2.50
2019-05-11T20:30:37.350Z,2.33
2019-05-11T20:33:08.574Z,2.52
2019-05-11T20:35:38.309Z,2.72
2019-05-11T20:38:08.749Z,2.52
2019-05-11T20:40:37.959Z,2.20
2019-05-11T20:43:07.990Z,2.60
2019-05-11T20:45:37.790Z,2.60
2019-05-11T20:48:07.957Z,2.58
2019-05-11T20:50:37.851Z,2.50
2019-05-11T20:53:08.592Z,2.58
2019-05-11T20:55:37.989Z,2.30
2019-05-11T20:58:08.623Z,2.47
2019-05-11T21:00:38.432Z,2.70
2019-05-11T21:03:08.043Z,3.10
2019-05-11T21:05:37.191Z,4.10
2019-05-11T21:08:08.410Z,2.50
2019-05-11T21:10:39.285Z,2.70
2019-05-11T21:13:08.839Z,2.72
2019-05-11T21:15:38.664Z,2.95
2019-05-11T21:18:08.030Z,2.58
2019-05-11T21:20:38.081Z,2.65
2019-05-11T21:23:08.252Z,2.55
2019-05-11T21:25:37.865Z,2.72
2019-05-11T21:28:08.567Z,2.30
2019-05-11T21:30:40.013Z,2.55
2019-05-11T21:33:08.822Z,2.83
2019-05-11T21:35:38.599Z,2.52
2019-05-11T21:38:07.881Z,2.72
2019-05-11T21:40:38.080Z,2.70
2019-05-11T21:43:08.693Z,2.52
2019-05-11T21:45:40.480Z,2.55
2019-05-11T21:48:08.980Z,3.45
2019-05-11T21:50:38.377Z,2.90
2019-05-11T21:53:10.247Z,2.87
2019-05-11T21:55:38.448Z,2.90
2019-05-11T21:58:09.062Z,2.45
2019-05-11T22:00:38.794Z,2.70
2019-05-11T22:03:10.321Z,3.00
2019-05-11T22:05:39.034Z,3.42
2019-05-11T22:08:08.692Z,2.75
2019-05-11T22:10:38.564Z,2.47
2019-05-11T22:13:07.812Z,3.20
2019-05-11T22:15:38.579Z,2.90
2019-05-11T22:18:08.166Z,2.58
2019-05-11T22:20:40.520Z,2.45
2019-05-11T22:23:08.582Z,2.90
2019-05-11T22:25:38.283Z,3.10
2019-05-11T22:28:08.515Z,2.70
2019-05-11T22:30:39.315Z,2.60
2019-05-11T22:33:09.016Z,2.90
2019-05-11T22:35:38.550Z,2.80
2019-05-11T22:38:08.465Z,2.77
2019-05-11T22:40:38.399Z,3.05
2019-05-11T22:43:09.347Z,2.90
2019-05-11T22:45:38.661Z,2.70
2019-05-11T22:48:08.143Z,2.65
2019-05-11T22:50:38.145Z,2.58
2019-05-11T22:53:08.805Z,2.58
2019-05-11T22:55:38.542Z,2.47
2019-05-11T22:58:08.572Z,2.52
2019-05-11T23:00:45.485Z,2.80
2019-05-11T23:03:14.854Z,2.85
2019-05-11T23:05:43.970Z,3.20
2019-05-11T23:08:13.124Z,2.75
2019-05-11T23:10:42.254Z,2.50
2019-05-11T23:13:11.806Z,2.50
2019-05-11T23:15:40.970Z,2.55
2019-05-11T23:18:10.062Z,2.62
2019-05-11T23:20:39.239Z,2.58
2019-05-11T23:23:08.920Z,2.20
2019-05-11T23:25:39.257Z,2.72
2019-05-11T23:28:08.615Z,2.98
2019-05-11T23:30:38.997Z,3.08
2019-05-11T23:33:08.303Z,2.87
2019-05-11T23:35:38.261Z,2.90
2019-05-11T23:38:07.643Z,2.60
2019-05-11T23:40:37.972Z,3.08
2019-05-11T23:43:08.654Z,2.72
2019-05-11T23:45:38.335Z,2.87
2019-05-11T23:48:07.603Z,3.02
2019-05-11T23:50:38.688Z,2.85
2019-05-11T23:53:10.256Z,3.00
2019-05-11T23:55:38.581Z,2.50
2019-05-11T23:58:08.251Z,2.50
